Time;durP1;ratioP1;P1;durP2;ratioP2;P2;SDS_P1;SDS_P2;PMS_P1;PMS_P2;Temp;Humidity;BMP_temperature;BMP_pressure;BME280_temperature;BME280_humidity;BME280_pressure;Samples;Min_cycle;Max_cycle;Signal;HPM_P1;HPM_P2
2023/07/16 00:03:14;;;;;;;5.30;3.90;;;;;;;25.53;66.11;98609.72;6972062;28;20215;-84
2023/07/16 00:06:37;;;;;;;5.67;3.37;;;;;;;25.12;66.35;98588.69;6990037;28;20207;-84
2023/07/16 00:09:59;;;;;;;4.90;3.77;;;;;;;25.12;66.58;98597.78;6999485;28;20744;-84
2023/07/16 00:13:21;;;;;;;4.50;4.10;;;;;;;25.30;67.29;98610.72;6999645;28;20269;-84
2023/07/16 00:16:42;;;;;;;4.80;3.80;;;;;;;25.14;67.15;98603.78;6998666;28;20250;-85
2023/07/16 00:20:05;;;;;;;4.50;3.83;;;;;;;25.03;68.14;98590.50;6999035;28;20218;-84
2023/07/16 00:23:27;;;;;;;3.97;3.30;;;;;;;25.01;66.78;98587.25;6999184;28;20258;-86
2023/07/16 00:26:50;;;;;;;4.47;3.03;;;;;;;25.28;65.75;98587.31;6998925;28;20296;-86
2023/07/16 00:30:11;;;;;;;3.53;2.93;;;;;;;25.39;64.52;98585.97;6999473;28;20324;-86
2023/07/16 00:33:33;;;;;;;4.97;2.80;;;;;;;25.47;64.21;98615.63;6999265;28;20326;-86
2023/07/16 00:37:01;;;;;;;2.70;2.50;;;;;;;25.33;64.12;98556.84;6998189;28;20707;-86
2023/07/16 00:40:22;;;;;;;2.80;2.60;;;;;;;25.61;64.47;98605.44;6998826;28;20221;-86
2023/07/16 00:43:45;;;;;;;2.80;2.60;;;;;;;25.23;64.56;98585.44;6998784;28;20564;-86
2023/07/16 00:47:10;;;;;;;2.90;2.67;;;;;;;25.53;63.95;98615.25;7000977;28;20616;-86
2023/07/16 00:50:33;;;;;;;3.90;2.37;;;;;;;25.59;63.91;98614.00;7001088;28;20317;-86
2023/07/16 00:53:55;;;;;;;2.53;2.33;;;;;;;25.57;63.88;98594.19;6997879;28;20266;-85
2023/07/16 00:57:18;;;;;;;4.10;2.43;;;;;;;25.64;63.72;98600.09;6998334;28;20670;-86
2023/07/16 01:00:41;;;;;;;4.03;2.47;;;;;;;25.51;63.28;98565.03;6998220;28;20270;-86
2023/07/16 01:04:03;;;;;;;3.10;2.77;;;;;;;25.74;63.57;98612.88;6998179;28;20205;-87
2023/07/16 01:07:26;;;;;;;3.30;2.23;;;;;;;25.75;63.19;98615.34;6997355;28;20209;-86
2023/07/16 01:10:49;;;;;;;3.97;2.37;;;;;;;26.00;61.42;98591.91;6998122;28;20293;-86
2023/07/16 01:14:10;;;;;;;3.70;2.00;;;;;;;25.74;61.05;98549.34;6997875;28;20661;-85
2023/07/16 01:17:33;;;;;;;2.30;2.20;;;;;;;25.16;62.04;98532.59;6997562;28;20293;-85
2023/07/16 01:20:55;;;;;;;2.73;2.50;;;;;;;25.52;63.69;98634.88;6997951;28;20348;-86
2023/07/16 01:24:45;;;;;;;3.17;2.87;;;;;;;25.28;63.53;98632.28;6997826;28;20662;-86
2023/07/16 01:28:20;;;;;;;2.63;2.43;;;;;;;25.64;63.73;98629.66;6997071;28;20233;-86
2023/07/16 01:31:44;;;;;;;2.67;2.30;;;;;;;25.93;62.62;98652.28;6997827;28;20343;-86
2023/07/16 01:35:06;;;;;;;2.30;2.10;;;;;;;26.01;61.78;98644.09;6998063;28;20270;-86
2023/07/16 01:38:28;;;;;;;3.37;2.10;;;;;;;25.88;61.47;98630.25;6996968;28;20775;-86
2023/07/16 01:41:49;;;;;;;3.00;2.70;;;;;;;25.44;61.64;98572.91;6997618;28;20336;-86
2023/07/16 01:45:11;;;;;;;1.87;1.77;;;;;;;25.74;61.29;98622.00;6997543;28;20288;-85
2023/07/16 01:48:37;;;;;;;2.13;2.03;;;;;;;25.70;61.24;98620.97;6995374;28;20325;-86
2023/07/16 01:51:58;;;;;;;2.37;2.10;;;;;;;25.82;61.66;98654.41;6997480;28;20222;-86
2023/07/16 01:55:20;;;;;;;1.97;1.87;;;;;;;25.71;61.10;98635.63;6997308;28;20255;-86
2023/07/16 01:58:41;;;;;;;2.67;2.10;;;;;;;25.37;62.60;98632.41;6997134;28;20222;-86
2023/07/16 02:02:03;;;;;;;3.80;2.20;;;;;;;25.42;62.11;98624.03;6997420;28;20715;-85
2023/07/16 02:05:27;;;;;;;3.37;2.30;;;;;;;24.48;62.73;98514.25;6992122;28;20259;-85
2023/07/16 02:08:48;;;;;;;2.00;1.90;;;;;;;25.37;62.51;98641.50;6969521;28;20218;-86
2023/07/16 02:12:10;;;;;;;2.03;1.93;;;;;;;25.34;62.32;98639.34;6969966;28;20279;-86
2023/07/16 02:15:31;;;;;;;2.60;2.40;;;;;;;25.26;63.35;98650.28;6975583;28;20214;-86
2023/07/16 02:18:53;;;;;;;3.53;2.20;;;;;;;25.11;64.24;98651.31;6975411;28;20693;-86
2023/07/16 02:22:16;;;;;;;2.27;2.07;;;;;;;24.77;64.27;98603.91;6975691;28;20210;-86
2023/07/16 02:25:37;;;;;;;2.13;2.03;;;;;;;24.70;64.78;98614.50;6975687;28;20243;-86
2023/07/16 02:28:59;;;;;;;2.30;2.10;;;;;;;24.26;63.23;98610.50;6976008;28;20287;-86
2023/07/16 02:32:21;;;;;;;2.97;1.93;;;;;;;24.06;63.81;98660.38;6975079;28;20239;-86
2023/07/16 02:35:47;;;;;;;2.60;2.10;;;;;;;24.41;62.65;98657.09;6974738;28;20209;-86
2023/07/16 02:39:10;;;;;;;1.93;1.83;;;;;;;24.29;59.88;98616.22;6975205;28;20699;-86
2023/07/16 02:42:31;;;;;;;2.50;2.10;;;;;;;24.59;60.56;98653.59;6974875;28;20344;-86
2023/07/16 02:45:53;;;;;;;2.00;1.90;;;;;;;24.45;59.89;98655.41;6976145;28;20205;-85
2023/07/16 02:49:15;;;;;;;2.00;1.80;;;;;;;24.30;58.45;98692.25;6999173;28;20270;-86
2023/07/16 02:52:37;;;;;;;2.63;1.90;;;;;;;24.44;58.06;98678.56;7002718;28;20382;-86
2023/07/16 02:56:00;;;;;;;2.40;2.07;;;;;;;24.45;59.27;98667.25;7001432;28;20232;-86
2023/07/16 02:59:21;;;;;;;2.87;1.73;;;;;;;24.58;58.15;98691.34;6997788;28;20267;-86
2023/07/16 03:02:43;;;;;;;4.73;1.90;;;;;;;24.24;57.23;98635.59;7001583;28;20198;-86
2023/07/16 03:06:04;;;;;;;2.00;1.90;;;;;;;24.66;57.87;98695.38;7000415;28;20802;-86
2023/07/16 03:09:26;;;;;;;2.40;2.20;;;;;;;24.28;59.09;98679.91;7001408;28;20232;-87
2023/07/16 03:12:48;;;;;;;2.73;2.00;;;;;;;24.22;58.98;98703.13;7000706;28;20281;-86
2023/07/16 03:16:10;;;;;;;2.30;2.10;;;;;;;24.64;58.94;98706.72;7000480;28;20260;-87
2023/07/16 03:19:31;;;;;;;2.10;1.90;;;;;;;24.66;58.97;98706.41;7001180;28;20508;-86
2023/07/16 03:22:53;;;;;;;3.27;1.90;;;;;;;24.04;59.51;98677.19;7001044;28;20209;-86
2023/07/16 03:26:15;;;;;;;2.43;2.23;;;;;;;24.40;58.60;98716.09;6999606;28;20205;-86
2023/07/16 03:29:37;;;;;;;3.27;2.10;;;;;;;24.51;58.96;98750.69;7000503;28;20219;-86
2023/07/16 03:32:59;;;;;;;3.03;2.03;;;;;;;24.46;58.11;98759.88;7000352;28;20359;-86
2023/07/16 03:36:20;;;;;;;2.27;2.00;;;;;;;24.43;56.71;98759.63;6999653;28;20631;-87
2023/07/16 03:39:42;;;;;;;1.87;1.60;;;;;;;23.85;55.57;98705.75;7000544;28;20278;-86
2023/07/16 03:43:03;;;;;;;1.77;1.67;;;;;;;24.07;57.06;98731.69;7000239;28;20208;-87
2023/07/16 03:46:26;;;;;;;4.43;2.23;;;;;;;24.23;54.02;98743.34;7000011;28;20271;-87
2023/07/16 03:49:48;;;;;;;3.93;1.93;;;;;;;23.62;55.76;98726.66;6999615;28;20226;-86
2023/07/16 03:53:09;;;;;;;2.73;1.93;;;;;;;23.38;56.80;98706.53;7000268;28;20212;-86
2023/07/16 03:56:31;;;;;;;3.53;2.17;;;;;;;22.91;57.72;98695.38;6999594;28;20372;-86
2023/07/16 03:59:52;;;;;;;2.43;2.10;;;;;;;23.68;55.71;98797.09;6999882;28;20303;-87
2023/07/16 04:03:15;;;;;;;3.83;1.90;;;;;;;24.01;54.00;98809.19;7000111;28;20260;-87
2023/07/16 04:06:43;;;;;;;2.57;2.30;;;;;;;23.51;55.88;98809.63;6994275;28;20619;-86
2023/07/16 04:10:06;;;;;;;3.83;2.33;;;;;;;23.73;54.49;98776.94;6999540;28;20689;-86
2023/07/16 04:13:27;;;;;;;4.60;2.00;;;;;;;23.75;55.97;98825.09;6999572;28;20320;-86
2023/07/16 04:16:49;;;;;;;3.93;2.03;;;;;;;24.12;53.93;98813.47;6999180;28;20612;-87
2023/07/16 04:20:12;;;;;;;5.50;2.30;;;;;;;23.28;53.34;98725.88;6999663;28;20314;-86
2023/07/16 04:23:34;;;;;;;4.27;2.10;;;;;;;23.85;55.26;98802.97;7020948;28;20210;-87
2023/07/16 04:26:55;;;;;;;2.87;2.07;;;;;;;24.15;53.71;98799.09;7010840;28;20283;-86
2023/07/16 04:30:16;;;;;;;4.40;2.20;;;;;;;23.28;54.94;98763.56;6999314;28;20222;-85
2023/07/16 04:33:38;;;;;;;3.73;1.80;;;;;;;23.46;54.46;98799.47;6999130;28;20233;-86
2023/07/16 04:37:01;;;;;;;3.73;2.10;;;;;;;23.95;53.11;98800.13;6998647;28;20204;-88
2023/07/16 04:40:26;;;;;;;4.37;2.10;;;;;;;24.13;53.16;98802.13;6992212;28;20252;-89
2023/07/16 04:43:47;;;;;;;3.07;2.03;;;;;;;24.25;54.67;98818.28;6986149;28;20741;-86
2023/07/16 04:47:09;;;;;;;3.90;1.90;;;;;;;24.38;55.05;98837.69;6996603;28;20262;-87
2023/07/16 04:50:30;;;;;;;2.33;2.10;;;;;;;24.06;55.75;98826.47;6997372;28;20327;-87
2023/07/16 04:53:53;;;;;;;7.30;2.57;;;;;;;23.94;56.48;98831.56;6997773;28;20231;-87
2023/07/16 04:57:23;;;;;;;4.80;2.07;;;;;;;23.61;59.62;98776.50;6980570;28;20263;-85
2023/07/16 05:00:45;;;;;;;3.93;2.07;;;;;;;23.68;56.72;98829.28;6992897;28;20304;-84
2023/07/16 05:04:07;;;;;;;2.17;1.97;;;;;;;23.93;57.48;98820.81;6988285;28;20296;-83
2023/07/16 05:07:29;;;;;;;4.27;2.57;;;;;;;23.73;58.88;98832.00;6997844;28;20709;-83
2023/07/16 05:10:52;;;;;;;4.93;2.27;;;;;;;23.94;58.90;98842.56;7000459;28;20276;-85
2023/07/16 05:14:13;;;;;;;5.23;2.07;;;;;;;22.75;59.31;98838.69;6997308;28;20232;-85
2023/07/16 05:17:35;;;;;;;3.67;2.20;;;;;;;23.73;59.73;98849.34;6997053;28;20292;-86
2023/07/16 05:20:58;;;;;;;3.13;2.20;;;;;;;24.44;57.91;98846.72;6992937;28;20201;-86
2023/07/16 05:24:21;;;;;;;3.23;1.80;;;;;;;24.22;57.65;98847.25;6991660;28;20245;-85
2023/07/16 05:27:44;;;;;;;4.73;2.50;;;;;;;23.66;58.29;98853.53;6996218;28;20196;-84
2023/07/16 05:31:06;;;;;;;3.80;2.20;;;;;;;24.11;58.40;98844.88;6997718;28;20300;-85
2023/07/16 05:34:27;;;;;;;4.87;2.50;;;;;;;24.13;57.80;98860.00;6997491;28;20267;-85
2023/07/16 05:37:51;;;;;;;4.53;2.40;;;;;;;23.93;56.69;98857.47;6996201;28;20232;-89
2023/07/16 05:41:13;;;;;;;3.53;2.10;;;;;;;23.53;56.32;98722.91;6997691;28;20222;-87
2023/07/16 05:44:37;;;;;;;2.73;2.07;;;;;;;24.86;55.76;98868.84;6971553;28;20202;-87
2023/07/16 05:47:58;;;;;;;4.00;2.30;;;;;;;24.51;57.97;98848.03;6996119;28;20251;-87
2023/07/16 05:51:19;;;;;;;4.57;1.90;;;;;;;24.90;56.82;98867.94;6996600;28;20269;-88
2023/07/16 05:54:51;;;;;;;3.37;2.30;;;;;;;24.83;57.05;98875.75;6976407;28;20211;-89
2023/07/16 05:58:12;;;;;;;4.83;2.17;;;;;;;24.86;57.35;98886.22;6968182;28;20362;-88
2023/07/16 06:01:36;;;;;;;2.17;1.97;;;;;;;25.13;57.55;98885.59;6969251;28;20217;-88
2023/07/16 06:04:59;;;;;;;3.73;2.30;;;;;;;25.59;53.04;98875.56;6968508;28;20214;-88
2023/07/16 06:08:21;;;;;;;4.53;2.07;;;;;;;25.44;54.10;98879.38;6967859;28;20313;-86
2023/07/16 06:11:42;;;;;;;2.03;1.90;;;;;;;25.00;54.97;98878.84;6991477;28;20226;-88
2023/07/16 06:15:05;;;;;;;5.00;2.03;;;;;;;25.39;52.78;98882.19;6996838;28;20202;-88
2023/07/16 06:18:28;;;;;;;2.40;2.10;;;;;;;25.17;53.84;98876.41;6995529;28;20733;-88
2023/07/16 06:21:49;;;;;;;4.80;1.70;;;;;;;25.18;54.34;98882.78;6996410;28;20230;-88
2023/07/16 06:25:12;;;;;;;3.67;1.80;;;;;;;25.19;52.95;98893.47;6996561;28;20353;-87
2023/07/16 06:28:41;;;;;;;4.93;2.40;;;;;;;24.96;53.13;98885.25;6980740;28;20234;-87
2023/07/16 06:32:03;;;;;;;3.77;2.00;;;;;;;25.10;51.44;98902.72;6969185;28;20213;-87
2023/07/16 06:35:26;;;;;;;3.50;2.27;;;;;;;24.39;52.55;98896.38;6968750;28;20204;-87
2023/07/16 06:38:47;;;;;;;3.43;2.27;;;;;;;24.38;53.05;98847.91;6968838;28;20259;-87
2023/07/16 06:42:09;;;;;;;5.67;2.20;;;;;;;24.28;52.34;98760.66;6974659;28;20737;-86
2023/07/16 06:45:31;;;;;;;6.63;2.43;;;;;;;25.09;53.55;98871.56;6986423;28;20270;-86
2023/07/16 06:48:53;;;;;;;4.73;2.20;;;;;;;25.04;52.54;98879.06;6996386;28;20283;-88
2023/07/16 06:52:22;;;;;;;7.27;2.53;;;;;;;24.87;53.34;98860.28;6995736;28;20251;-87
2023/07/16 06:55:44;;;;;;;5.50;2.10;;;;;;;25.15;51.93;98866.78;6995611;28;20212;-88
2023/07/16 06:59:05;;;;;;;4.20;2.10;;;;;;;25.16;52.14;98869.25;6996308;28;20226;-88
2023/07/16 07:02:27;;;;;;;4.00;2.10;;;;;;;25.10;51.79;98815.25;6999652;28;20778;-87
2023/07/16 07:05:49;;;;;;;5.13;2.20;;;;;;;26.26;51.18;98873.00;7000525;28;20635;-87
2023/07/16 07:09:12;;;;;;;3.00;2.30;;;;;;;26.30;49.89;98873.22;7001328;28;20286;-87
2023/07/16 07:12:37;;;;;;;4.90;2.60;;;;;;;25.79;48.42;98870.50;7001250;28;20282;-87
2023/07/16 07:15:58;;;;;;;3.97;2.50;;;;;;;25.38;50.36;98869.53;7001149;28;20215;-87
2023/07/16 07:19:57;;;;;;;5.00;2.30;;;;;;;25.74;50.29;98887.19;6995845;28;20224;-87
2023/07/16 07:23:18;;;;;;;5.43;2.53;;;;;;;25.36;47.64;98812.97;7001792;28;20639;-87
2023/07/16 07:26:41;;;;;;;5.03;2.00;;;;;;;26.29;46.12;98879.84;7000983;28;20661;-88
2023/07/16 07:30:03;;;;;;;5.33;2.00;;;;;;;26.49;46.56;98824.19;7008744;28;20390;-87
2023/07/16 07:33:25;;;;;;;3.40;1.97;;;;;;;26.52;45.98;98871.41;7001502;28;20226;-87
2023/07/16 07:36:46;;;;;;;4.60;2.30;;;;;;;27.10;45.58;98861.34;7000233;28;20244;-88
2023/07/16 07:40:20;;;;;;;3.90;2.17;;;;;;;27.37;45.03;98869.59;7000113;28;20290;-88
2023/07/16 07:43:43;;;;;;;4.63;2.00;;;;;;;27.46;41.55;98856.66;7000996;28;20198;-88
2023/07/16 07:47:05;;;;;;;2.90;1.90;;;;;;;28.01;42.34;98840.66;7000602;28;20369;-88
2023/07/16 07:50:29;;;;;;;3.10;1.97;;;;;;;28.10;41.30;98877.53;7000144;28;20238;-88
2023/07/16 07:53:50;;;;;;;3.57;2.10;;;;;;;27.85;41.73;98889.28;7000606;28;20246;-88
2023/07/16 07:57:12;;;;;;;3.80;2.03;;;;;;;27.40;42.27;98888.38;7000693;28;20205;-89
2023/07/16 08:00:34;;;;;;;5.60;1.80;;;;;;;26.80;43.29;98892.44;7000475;28;20563;-88
2023/07/16 08:03:56;;;;;;;3.30;2.27;;;;;;;26.92;43.88;98906.59;6999609;28;20202;-87
2023/07/16 08:07:17;;;;;;;3.97;1.83;;;;;;;28.26;40.95;98895.44;6997932;28;20268;-87
2023/07/16 08:10:40;;;;;;;6.87;2.40;;;;;;;28.05;41.24;98881.28;6999355;28;20284;-86
2023/07/16 08:14:02;;;;;;;3.57;2.13;;;;;;;28.29;41.73;98892.00;6999531;28;20250;-87
2023/07/16 08:17:25;;;;;;;5.83;1.77;;;;;;;27.58;41.12;98901.25;6998346;28;20258;-86
2023/07/16 08:20:47;;;;;;;5.00;2.10;;;;;;;27.72;40.70;98909.53;7000404;28;20357;-88
2023/07/16 08:24:09;;;;;;;2.90;2.10;;;;;;;26.95;41.12;98795.25;7006298;28;20210;-89
2023/07/16 08:27:30;;;;;;;3.77;2.17;;;;;;;27.17;41.31;98908.00;7005768;28;20306;-88
2023/07/16 08:30:52;;;;;;;4.93;2.03;;;;;;;28.30;39.74;98901.97;6999265;28;20611;-89
2023/07/16 08:34:15;;;;;;;4.93;2.50;;;;;;;28.29;39.87;98884.50;6999142;28;20314;-89
2023/07/16 08:37:36;;;;;;;3.57;1.90;;;;;;;28.87;38.25;98826.84;6999842;28;20206;-89
2023/07/16 08:40:57;;;;;;;4.10;1.80;;;;;;;28.91;37.79;98875.00;6999371;28;20278;-89
2023/07/16 08:44:53;;;;;;;4.73;2.53;;;;;;;28.46;38.08;98873.53;6999068;28;20214;-89
2023/07/16 08:48:14;;;;;;;4.20;2.23;;;;;;;28.20;38.93;98882.81;6998955;28;20226;-89
2023/07/16 08:51:38;;;;;;;4.40;2.00;;;;;;;29.16;37.62;98887.34;6998568;28;20259;-89
2023/07/16 08:55:00;;;;;;;4.73;2.10;;;;;;;28.58;37.71;98887.63;6998700;28;20702;-89
2023/07/16 08:58:23;;;;;;;3.17;2.20;;;;;;;28.41;38.25;98898.63;6998825;28;20232;-89
2023/07/16 09:01:47;;;;;;;3.93;2.27;;;;;;;28.15;38.49;98866.31;6998264;28;20356;-89
2023/07/16 09:05:10;;;;;;;3.30;2.43;;;;;;;28.41;38.36;98895.88;6998626;28;20215;-89
2023/07/16 09:08:33;;;;;;;3.33;2.30;;;;;;;28.68;36.93;98892.91;6999068;28;20229;-87
2023/07/16 09:11:55;;;;;;;3.83;2.10;;;;;;;29.59;36.85;98897.41;6998076;28;20207;-87
2023/07/16 09:15:18;;;;;;;3.90;2.20;;;;;;;29.12;37.33;98886.34;6997924;28;20285;-87
2023/07/16 09:18:41;;;;;;;3.20;2.30;;;;;;;28.27;39.03;98886.78;6997841;28;20590;-87
2023/07/16 09:22:05;;;;;;;3.30;2.03;;;;;;;27.84;39.18;98877.38;6997340;28;20778;-87
2023/07/16 09:25:28;;;;;;;2.90;2.20;;;;;;;28.31;38.13;98871.13;6997925;28;20212;-88
2023/07/16 09:28:50;;;;;;;5.17;2.00;;;;;;;27.81;38.22;98807.88;6997482;28;20287;-87
2023/07/16 09:32:11;;;;;;;4.43;2.30;;;;;;;28.56;36.88;98889.09;6998205;28;20202;-86
2023/07/16 09:35:36;;;;;;;4.33;1.97;;;;;;;29.78;35.82;98872.06;6998326;28;20206;-87
2023/07/16 09:38:58;;;;;;;4.10;2.30;;;;;;;30.71;34.58;98891.38;6997890;28;20632;-87
2023/07/16 09:42:21;;;;;;;4.77;2.10;;;;;;;29.39;34.70;98777.72;6997896;28;20342;-86
2023/07/16 09:45:43;;;;;;;4.13;2.07;;;;;;;29.37;34.88;98893.94;6997552;28;20285;-87
2023/07/16 09:49:05;;;;;;;3.70;2.00;;;;;;;29.44;35.26;98897.03;6997389;28;20316;-87
2023/07/16 09:52:27;;;;;;;7.70;5.13;;;;;;;29.74;34.69;98896.94;6997568;28;20690;-87
2023/07/16 09:55:50;;;;;;;8.10;6.00;;;;;;;29.12;34.25;98889.97;6997316;28;20672;-87
2023/07/16 09:59:15;;;;;;;4.67;3.40;;;;;;;29.82;33.73;98886.94;6999431;28;20238;-87
2023/07/16 10:02:37;;;;;;;3.43;2.23;;;;;;;30.61;31.77;98758.06;6998116;28;20295;-87
2023/07/16 10:06:14;;;;;;;4.53;2.27;;;;;;;31.02;31.35;98857.63;7002139;28;20306;-87
2023/07/16 10:09:37;;;;;;;4.90;3.83;;;;;;;30.90;32.23;98863.91;7003554;28;20713;-87
2023/07/16 10:13:02;;;;;;;6.23;4.10;;;;;;;31.06;31.35;98878.06;7002686;28;20274;-87
2023/07/16 10:16:27;;;;;;;4.37;2.37;;;;;;;30.66;31.29;98880.41;6997539;28;20310;-87
2023/07/16 10:19:55;;;;;;;3.20;1.80;;;;;;;31.26;30.31;98871.78;6997105;28;20282;-87
2023/07/16 10:23:17;;;;;;;2.20;1.87;;;;;;;30.44;30.93;98805.47;6997286;28;20243;-87
2023/07/16 10:26:40;;;;;;;4.33;2.13;;;;;;;31.29;30.23;98862.72;6996443;28;20264;-87
2023/07/16 10:30:02;;;;;;;2.27;1.90;;;;;;;31.41;30.73;98866.41;6998041;28;20226;-87
2023/07/16 10:33:25;;;;;;;4.53;2.33;;;;;;;30.67;30.78;98881.25;6997844;28;20230;-87
2023/07/16 10:36:47;;;;;;;2.37;2.03;;;;;;;30.49;30.94;98874.88;7002297;28;20237;-87
2023/07/16 10:40:11;;;;;;;2.43;2.00;;;;;;;31.16;31.00;98852.63;7002021;28;20227;-87
2023/07/16 10:43:33;;;;;;;2.50;2.13;;;;;;;29.97;30.07;98764.91;6996606;28;20295;-88
2023/07/16 10:46:55;;;;;;;3.40;2.00;;;;;;;30.56;31.09;98854.88;7001391;28;20620;-87
2023/07/16 10:50:20;;;;;;;3.13;1.97;;;;;;;30.57;31.42;98849.00;7001153;28;20371;-88
2023/07/16 10:53:42;;;;;;;2.97;1.87;;;;;;;31.21;30.03;98819.84;7001632;28;20215;-87
2023/07/16 10:57:05;;;;;;;2.30;1.80;;;;;;;30.95;30.76;98849.81;7000911;28;20285;-87
2023/07/16 11:00:26;;;;;;;2.20;2.00;;;;;;;30.91;30.47;98843.25;7001503;28;20319;-87
2023/07/16 11:03:51;;;;;;;3.50;1.90;;;;;;;30.67;30.09;98731.72;7002113;28;20268;-88
2023/07/16 11:07:22;;;;;;;2.43;1.87;;;;;;;31.37;28.76;98753.16;7000689;28;20763;-89
2023/07/16 11:10:55;;;;;;;2.80;2.00;;;;;;;32.45;28.88;98835.25;7001384;28;20227;-87
2023/07/16 11:14:16;;;;;;;4.70;2.20;;;;;;;32.57;28.52;98781.38;7001187;28;20209;-88
2023/07/16 11:17:39;;;;;;;2.00;1.70;;;;;;;32.52;28.33;98799.19;7001518;28;20239;-88
2023/07/16 11:21:00;;;;;;;2.40;1.77;;;;;;;32.17;27.75;98830.63;7001452;28;20296;-87
2023/07/16 11:24:24;;;;;;;2.03;1.70;;;;;;;32.02;26.98;98845.25;7001296;28;20338;-87
2023/07/16 11:27:46;;;;;;;2.80;2.13;;;;;;;31.73;27.93;98834.19;7000892;28;20235;-88
2023/07/16 11:31:15;;;;;;;3.47;2.17;;;;;;;32.24;29.26;98842.88;7000702;28;20299;-87
2023/07/16 11:34:36;;;;;;;2.03;1.83;;;;;;;32.32;28.53;98841.16;7000711;28;20281;-86
2023/07/16 11:37:58;;;;;;;2.90;2.20;;;;;;;32.76;28.60;98832.75;6999886;28;20257;-85
2023/07/16 11:41:22;;;;;;;3.40;1.80;;;;;;;31.78;29.19;98800.53;7000598;28;20212;-86
2023/07/16 11:44:44;;;;;;;2.30;2.10;;;;;;;32.31;27.96;98840.34;6999715;28;20363;-86
2023/07/16 11:48:06;;;;;;;2.33;1.77;;;;;;;32.93;27.07;98815.75;6999253;28;20319;-86
2023/07/16 11:51:27;;;;;;;2.93;2.23;;;;;;;33.14;27.87;98821.19;7000249;28;20666;-85
2023/07/16 11:54:49;;;;;;;3.27;1.77;;;;;;;33.00;27.50;98815.97;7000077;28;20222;-86
2023/07/16 11:58:12;;;;;;;2.30;2.00;;;;;;;32.96;27.31;98803.84;6999791;28;20584;-86
2023/07/16 12:01:33;;;;;;;2.53;1.83;;;;;;;33.34;27.06;98818.28;7000414;28;20258;-87
2023/07/16 12:05:06;;;;;;;2.47;2.10;;;;;;;32.55;27.82;98809.66;6998710;28;20354;-87
2023/07/16 12:08:29;;;;;;;3.20;2.03;;;;;;;33.29;27.08;98812.09;6999480;28;20231;-87
2023/07/16 12:11:50;;;;;;;2.80;2.30;;;;;;;32.60;27.84;98800.25;7000194;28;20347;-87
2023/07/16 12:15:13;;;;;;;2.23;2.03;;;;;;;32.30;27.43;98793.25;7000052;28;20773;-87
2023/07/16 12:18:35;;;;;;;2.67;1.93;;;;;;;31.95;28.13;98803.16;6999329;28;20714;-87
2023/07/16 12:21:59;;;;;;;3.90;2.10;;;;;;;32.62;28.20;98793.16;6999840;28;20670;-87
2023/07/16 12:25:21;;;;;;;2.47;2.17;;;;;;;32.66;26.76;98784.91;6999676;28;20608;-88
2023/07/16 12:28:42;;;;;;;2.83;2.03;;;;;;;33.51;27.06;98789.19;6999369;28;20225;-87
2023/07/16 12:32:08;;;;;;;2.97;2.10;;;;;;;31.32;27.90;98698.44;7000068;28;20201;-86
2023/07/16 12:35:29;;;;;;;2.77;2.10;;;;;;;32.15;28.12;98777.13;6999537;28;20889;-87
2023/07/16 12:38:51;;;;;;;2.13;1.93;;;;;;;32.65;27.37;98719.00;6999559;28;20383;-87
2023/07/16 12:42:12;;;;;;;2.00;1.80;;;;;;;32.75;27.40;98785.56;6999788;28;20206;-87
2023/07/16 12:45:36;;;;;;;2.83;1.93;;;;;;;32.63;27.70;98780.81;6985128;28;20286;-87
2023/07/16 12:48:59;;;;;;;2.70;2.00;;;;;;;32.47;27.89;98768.72;6971274;28;20593;-87
2023/07/16 12:52:20;;;;;;;2.17;1.97;;;;;;;32.20;26.58;98662.50;6971053;28;20628;-87
2023/07/16 12:55:42;;;;;;;3.33;2.00;;;;;;;32.23;27.14;98774.25;6970147;28;20360;-87
2023/07/16 12:59:03;;;;;;;3.47;2.20;;;;;;;31.19;29.64;98771.19;6971137;28;20368;-87
2023/07/16 13:02:25;;;;;;;3.90;1.97;;;;;;;31.91;29.42;98766.72;6970887;28;20622;-87
2023/07/16 13:05:50;;;;;;;2.27;2.07;;;;;;;33.29;27.44;98765.41;6969242;28;20674;-87
2023/07/16 13:09:11;;;;;;;2.50;2.17;;;;;;;31.87;28.54;98770.56;6970694;28;20440;-87
2023/07/16 13:12:33;;;;;;;2.30;2.10;;;;;;;33.08;27.72;98764.72;6970554;28;20707;-87
2023/07/16 13:15:54;;;;;;;4.03;2.10;;;;;;;33.22;28.03;98767.13;6970110;28;20332;-87
2023/07/16 13:19:16;;;;;;;2.17;1.97;;;;;;;32.83;27.84;98765.94;6970650;28;20623;-87
2023/07/16 13:22:39;;;;;;;3.00;2.10;;;;;;;32.50;28.66;98731.72;6970485;28;20356;-87
2023/07/16 13:26:00;;;;;;;3.07;2.07;;;;;;;33.46;27.23;98748.31;6970111;28;20300;-87
2023/07/16 13:29:22;;;;;;;3.90;2.30;;;;;;;33.08;27.79;98756.31;6969918;28;20227;-87
2023/07/16 13:32:43;;;;;;;2.33;2.03;;;;;;;33.97;25.98;98743.78;6970610;28;20237;-87
2023/07/16 13:36:06;;;;;;;3.30;1.90;;;;;;;33.10;27.29;98745.63;6969354;28;20315;-87
2023/07/16 13:39:29;;;;;;;1.77;1.60;;;;;;;33.46;27.37;98728.75;6969943;28;20855;-88
2023/07/16 13:42:50;;;;;;;2.80;2.10;;;;;;;33.41;27.34;98728.19;6970304;28;20416;-87
2023/07/16 13:46:12;;;;;;;2.00;1.80;;;;;;;33.34;28.03;98731.59;6969344;28;20206;-85
2023/07/16 13:49:33;;;;;;;2.80;1.70;;;;;;;33.66;26.28;98744.50;6970112;28;20367;-88
2023/07/16 13:52:55;;;;;;;2.73;2.40;;;;;;;33.74;26.42;98726.75;6970338;28;20739;-88
2023/07/16 13:56:18;;;;;;;2.63;2.10;;;;;;;33.06;27.34;98741.06;6969802;28;20230;-85
2023/07/16 13:59:39;;;;;;;1.93;1.80;;;;;;;33.25;26.95;98738.47;6970858;28;20313;-86
2023/07/16 14:03:01;;;;;;;2.87;2.00;;;;;;;32.18;27.93;98735.41;6970327;28;20206;-86
2023/07/16 14:06:22;;;;;;;4.27;2.20;;;;;;;32.96;28.53;98736.00;6967650;28;20567;-86
2023/07/16 14:09:44;;;;;;;2.03;1.80;;;;;;;33.47;27.26;98744.34;6969395;28;20283;-87
2023/07/16 14:13:07;;;;;;;2.10;1.90;;;;;;;33.40;27.62;98743.34;6969663;28;20236;-87
2023/07/16 14:16:28;;;;;;;2.47;2.00;;;;;;;33.51;27.36;98750.03;6969334;28;20320;-87
2023/07/16 14:19:50;;;;;;;2.00;1.80;;;;;;;33.39;26.67;98700.59;6970397;28;20257;-86
2023/07/16 14:23:11;;;;;;;2.97;2.10;;;;;;;32.89;27.94;98705.06;6969972;28;20257;-86
2023/07/16 14:26:33;;;;;;;3.33;2.20;;;;;;;32.49;28.33;98741.25;6969096;28;20301;-86
2023/07/16 14:29:56;;;;;;;3.27;2.03;;;;;;;32.47;29.03;98742.75;6969829;28;20589;-87
2023/07/16 14:33:17;;;;;;;2.30;2.00;;;;;;;31.96;28.84;98727.47;6969583;28;20605;-86
2023/07/16 14:36:41;;;;;;;2.50;2.20;;;;;;;31.70;28.90;98645.22;6969013;28;20244;-86
2023/07/16 14:40:05;;;;;;;3.37;1.93;;;;;;;31.42;29.30;98641.47;6971407;28;20773;-87
2023/07/16 14:43:29;;;;;;;2.90;2.17;;;;;;;32.07;28.50;98678.41;6971399;28;20311;-87
2023/07/16 14:46:52;;;;;;;2.10;1.90;;;;;;;32.06;27.65;98689.91;6970769;28;20247;-87
2023/07/16 14:50:13;;;;;;;3.60;2.30;;;;;;;31.71;29.26;98741.66;6969879;28;20364;-86
2023/07/16 14:53:35;;;;;;;2.83;2.20;;;;;;;31.89;28.33;98740.38;6969328;28;20210;-87
2023/07/16 14:56:56;;;;;;;2.67;2.03;;;;;;;31.89;28.53;98685.38;6974787;28;20199;-87
2023/07/16 15:00:18;;;;;;;2.33;2.10;;;;;;;31.86;29.53;98744.66;6997125;28;20236;-88
2023/07/16 15:03:41;;;;;;;3.73;2.00;;;;;;;32.70;28.04;98741.94;6997472;28;20200;-82
2023/07/16 15:07:06;;;;;;;3.97;2.10;;;;;;;32.66;27.76;98673.19;6995660;28;20214;-90
2023/07/16 15:10:28;;;;;;;2.43;2.00;;;;;;;32.32;28.09;98735.91;6995974;28;20221;-85
2023/07/16 15:13:49;;;;;;;2.97;2.20;;;;;;;32.97;27.71;98732.84;6997979;28;20207;-88
2023/07/16 15:17:11;;;;;;;2.03;1.77;;;;;;;32.58;27.83;98725.19;6997519;28;20335;-85
2023/07/16 15:20:34;;;;;;;3.77;1.90;;;;;;;32.31;28.02;98727.91;6998680;28;20231;-85
2023/07/16 15:23:55;;;;;;;3.43;1.77;;;;;;;32.04;28.63;98728.53;7002895;28;20311;-86
2023/07/16 15:27:17;;;;;;;4.63;2.20;;;;;;;31.77;28.81;98721.63;7001368;28;20282;-85
2023/07/16 15:30:39;;;;;;;3.47;2.10;;;;;;;31.74;29.39;98722.31;6978018;28;20275;-85
2023/07/16 15:34:00;;;;;;;2.80;2.17;;;;;;;32.18;28.60;98718.66;6975354;28;20233;-85
2023/07/16 15:37:23;;;;;;;2.40;2.13;;;;;;;32.42;28.52;98710.31;6973453;28;20351;-86
2023/07/16 15:40:45;;;;;;;3.63;2.10;;;;;;;32.22;28.56;98704.81;6974076;28;20227;-85
2023/07/16 15:44:06;;;;;;;2.40;1.73;;;;;;;32.10;28.96;98713.19;6980358;28;20611;-85
2023/07/16 15:47:28;;;;;;;3.20;2.60;;;;;;;31.36;30.67;98629.72;7000864;28;20266;-85
2023/07/16 15:50:50;;;;;;;4.97;2.40;;;;;;;31.96;30.46;98685.63;7001641;28;20270;-86
2023/07/16 15:54:14;;;;;;;2.50;2.17;;;;;;;32.13;29.66;98690.97;6998417;28;20227;-86
2023/07/16 15:57:36;;;;;;;8.40;5.30;;;;;;;32.73;29.67;98706.91;6999630;28;20325;-87